createdAt,value
2019-03-21T00:00:27.504Z,75.17
2019-03-21T00:02:56.448Z,77.20
2019-03-21T00:05:28.110Z,73.23
2019-03-21T00:07:57.102Z,78.50
2019-03-21T00:11:24.933Z,80.17
2019-03-21T00:14:06.610Z,78.83
2019-03-21T00:16:29.154Z,78.70
2019-03-21T00:18:57.963Z,79.60
2019-03-21T00:21:27.015Z,79.30
2019-03-21T00:23:56.115Z,76.63
2019-03-21T00:26:25.048Z,77.77
2019-03-21T00:28:53.970Z,79.37
2019-03-21T00:31:22.946Z,78.33
2019-03-21T00:33:51.839Z,76.73
2019-03-21T00:36:21.119Z,77.53
2019-03-21T00:38:50.196Z,79.00
2019-03-21T00:41:19.090Z,79.63
2019-03-21T00:43:48.052Z,77.57
2019-03-21T00:46:17.156Z,77.53
2019-03-21T00:48:46.182Z,78.87
2019-03-21T00:51:15.172Z,77.80
2019-03-21T00:53:44.065Z,82.37
2019-03-21T00:56:12.884Z,80.33
2019-03-21T00:58:41.691Z,77.93
2019-03-21T01:01:10.585Z,78.13
2019-03-21T01:03:39.594Z,73.83
2019-03-21T01:06:08.583Z,75.77
2019-03-21T01:08:37.433Z,75.70
2019-03-21T01:11:06.317Z,76.83
2019-03-21T01:13:35.578Z,78.03
2019-03-21T01:16:05.559Z,73.97
2019-03-21T01:18:35.010Z,74.83
2019-03-21T01:21:05.186Z,74.83
2019-03-21T01:23:34.033Z,73.67
2019-03-21T01:26:05.347Z,74.30
2019-03-21T01:28:34.237Z,77.77
2019-03-21T01:31:03.160Z,75.20
2019-03-21T01:33:32.146Z,74.80
2019-03-21T01:36:01.005Z,75.20
2019-03-21T01:38:29.911Z,76.30
2019-03-21T01:40:58.831Z,73.47
2019-03-21T01:43:27.814Z,73.43
2019-03-21T01:45:57.675Z,75.57
2019-03-21T01:48:26.581Z,73.43
2019-03-21T01:50:55.459Z,72.73
2019-03-21T01:53:24.381Z,74.33
2019-03-21T01:55:53.310Z,70.50
2019-03-21T01:58:22.280Z,72.33
2019-03-21T02:00:51.270Z,73.00
2019-03-21T02:03:20.331Z,73.07
2019-03-21T02:05:50.231Z,73.13
2019-03-21T02:08:19.183Z,67.20
2019-03-21T02:10:48.249Z,72.13
2019-03-21T02:13:17.231Z,72.20
2019-03-21T02:15:46.485Z,69.73
2019-03-21T02:18:15.525Z,71.43
2019-03-21T02:20:45.495Z,70.93
2019-03-21T02:23:14.330Z,70.63
2019-03-21T02:25:43.396Z,70.40
2019-03-21T02:28:12.415Z,72.40
2019-03-21T02:30:41.325Z,74.23
2019-03-21T02:33:17.754Z,71.10
2019-03-21T02:35:46.938Z,72.60
2019-03-21T02:38:15.925Z,72.17
2019-03-21T02:40:44.929Z,71.30
2019-03-21T02:43:13.836Z,71.90
2019-03-21T02:45:42.897Z,69.73
2019-03-21T02:48:12.462Z,73.33
2019-03-21T02:50:41.382Z,71.93
2019-03-21T02:53:10.319Z,71.20
2019-03-21T02:55:39.614Z,71.30
2019-03-21T02:58:08.512Z,69.90
2019-03-21T03:00:37.400Z,70.43
2019-03-21T03:03:06.694Z,70.17
2019-03-21T03:05:36.108Z,71.27
2019-03-21T03:08:05.290Z,69.17
2019-03-21T03:10:38.227Z,68.97
2019-03-21T03:13:07.352Z,66.93
2019-03-21T03:15:37.310Z,67.10
2019-03-21T03:18:06.235Z,63.77
2019-03-21T03:20:35.075Z,65.80
2019-03-21T03:23:04.007Z,66.97
2019-03-21T03:25:33.008Z,65.47
2019-03-21T03:28:06.937Z,66.97
2019-03-21T03:30:35.834Z,65.20
2019-03-21T03:33:04.762Z,66.53
2019-03-21T03:35:33.771Z,69.27
2019-03-21T03:38:03.738Z,68.70
2019-03-21T03:40:36.902Z,67.53
2019-03-21T03:43:05.968Z,66.77
2019-03-21T03:45:38.088Z,67.97
2019-03-21T03:48:06.250Z,66.07
2019-03-21T03:50:35.188Z,68.00
2019-03-21T03:53:04.161Z,67.43
2019-03-21T03:55:33.525Z,66.97
2019-03-21T03:58:04.603Z,64.87
2019-03-21T04:00:33.529Z,67.30
2019-03-21T04:03:03.655Z,65.40
2019-03-21T04:05:32.635Z,64.43
2019-03-21T04:08:01.484Z,65.37
2019-03-21T04:10:33.616Z,64.93
2019-03-21T04:13:02.612Z,61.47
2019-03-21T04:15:31.605Z,64.57
2019-03-21T04:18:00.693Z,63.57
2019-03-21T04:20:32.282Z,62.37
2019-03-21T04:23:01.727Z,62.20
2019-03-21T04:25:44.560Z,60.17
2019-03-21T04:28:14.717Z,62.03
2019-03-21T04:30:45.141Z,62.10
2019-03-21T04:33:14.042Z,61.93
2019-03-21T04:35:42.985Z,60.50
2019-03-21T04:38:11.835Z,58.37
2019-03-21T04:40:40.704Z,57.17
2019-03-21T04:43:09.596Z,58.23
2019-03-21T04:45:38.548Z,57.83
2019-03-21T04:48:08.432Z,58.93
2019-03-21T04:50:37.444Z,56.97
2019-03-21T04:53:06.407Z,56.10
2019-03-21T04:55:35.295Z,54.30
2019-03-21T04:58:05.269Z,55.70
2019-03-21T05:00:34.974Z,54.23
2019-03-21T05:03:04.836Z,53.40
2019-03-21T05:05:33.802Z,53.70
2019-03-21T05:08:02.765Z,51.47
2019-03-21T05:10:31.659Z,46.47
2019-03-21T05:13:00.527Z,43.37
2019-03-21T05:15:33.103Z,39.27
2019-03-21T05:18:06.440Z,35.43
2019-03-21T05:20:35.294Z,34.83
2019-03-21T05:23:04.247Z,32.93
2019-03-21T05:25:33.052Z,28.47
2019-03-21T05:28:01.994Z,29.90
2019-03-21T05:30:39.186Z,31.23
2019-03-21T05:33:09.104Z,29.30
2019-03-21T05:35:37.960Z,31.23
2019-03-21T05:38:08.310Z,33.27
2019-03-21T05:40:37.320Z,33.97
2019-03-21T05:43:13.741Z,32.63
2019-03-21T05:45:42.630Z,33.83
2019-03-21T05:48:11.475Z,33.70
2019-03-21T05:50:40.370Z,35.27
2019-03-21T05:53:10.416Z,36.97
2019-03-21T05:55:39.726Z,37.37
2019-03-21T05:58:08.737Z,36.23
2019-03-21T06:00:40.639Z,38.17
2019-03-21T06:03:19.583Z,38.77
2019-03-21T06:05:54.659Z,37.57
2019-03-21T06:08:28.369Z,38.73
2019-03-21T06:10:57.308Z,38.23
2019-03-21T06:13:26.178Z,40.30
2019-03-21T06:16:04.881Z,40.80
2019-03-21T06:19:20.581Z,40.97
2019-03-21T06:22:52.499Z,42.13
2019-03-21T06:25:59.441Z,41.27
2019-03-21T06:28:28.473Z,43.83
2019-03-21T06:30:57.575Z,45.13
2019-03-21T06:33:26.626Z,44.47
2019-03-21T06:35:55.555Z,44.77
2019-03-21T06:38:24.471Z,43.80
2019-03-21T06:40:54.275Z,41.67
2019-03-21T06:43:23.268Z,43.07
2019-03-21T06:45:52.247Z,43.20
2019-03-21T06:48:22.134Z,41.10
2019-03-21T06:50:51.191Z,41.93
2019-03-21T06:53:20.115Z,44.47
2019-03-21T06:55:49.007Z,44.90
2019-03-21T06:58:19.116Z,44.87
2019-03-21T07:00:48.122Z,43.20
2019-03-21T07:03:17.109Z,43.93
2019-03-21T07:05:46.166Z,43.33
2019-03-21T07:08:15.410Z,44.67
2019-03-21T07:10:44.314Z,44.43
2019-03-21T07:13:13.309Z,45.37
2019-03-21T07:15:42.381Z,45.37
2019-03-21T07:18:12.404Z,46.63
2019-03-21T07:20:41.454Z,42.53
2019-03-21T07:23:10.393Z,44.00
2019-03-21T07:25:39.326Z,44.07
2019-03-21T07:28:08.340Z,43.07
2019-03-21T07:30:37.264Z,43.03
2019-03-21T07:33:06.233Z,42.53
2019-03-21T07:35:35.202Z,41.97
2019-03-21T07:38:06.340Z,41.17
2019-03-21T07:40:35.438Z,42.97
2019-03-21T07:43:04.402Z,35.63
2019-03-21T07:45:34.462Z,34.83
2019-03-21T07:48:05.226Z,36.17
2019-03-21T07:50:35.417Z,36.47
2019-03-21T07:53:04.305Z,37.93
2019-03-21T07:55:34.267Z,38.60
2019-03-21T07:58:03.301Z,37.37
2019-03-21T08:00:32.324Z,36.70
2019-03-21T08:03:01.507Z,35.87
2019-03-21T08:05:39.797Z,37.07
2019-03-21T08:08:02.360Z,36.47
2019-03-21T08:10:31.408Z,36.03
2019-03-21T08:13:00.409Z,37.33
2019-03-21T08:15:29.679Z,35.17
2019-03-21T08:17:58.706Z,34.17
2019-03-21T08:20:27.593Z,33.97
2019-03-21T08:22:56.445Z,32.53
2019-03-21T08:25:25.384Z,35.00
2019-03-21T08:27:54.257Z,31.07
2019-03-21T08:30:34.417Z,30.87
2019-03-21T08:33:03.873Z,28.83
2019-03-21T08:35:34.559Z,25.20
2019-03-21T08:38:03.545Z,24.93
2019-03-21T08:40:32.597Z,25.07
2019-03-21T08:43:01.654Z,25.40
2019-03-21T08:45:30.549Z,25.43
2019-03-21T08:48:00.544Z,24.90
2019-03-21T08:50:29.504Z,26.87
2019-03-21T08:52:58.462Z,25.90
2019-03-21T08:55:27.546Z,28.67
2019-03-21T08:57:56.475Z,29.00
2019-03-21T09:00:33.761Z,28.97
2019-03-21T09:02:56.457Z,29.00
2019-03-21T09:05:25.632Z,29.27
2019-03-21T09:07:56.838Z,29.07
2019-03-21T09:10:25.975Z,30.40
2019-03-21T09:12:54.992Z,29.83
2019-03-21T09:15:24.124Z,32.03
2019-03-21T09:17:55.413Z,31.00
2019-03-21T09:20:23.764Z,32.23
2019-03-21T09:22:52.719Z,31.93
2019-03-21T09:25:21.710Z,31.33
2019-03-21T09:28:02.119Z,28.30
2019-03-21T09:30:25.226Z,27.70
2019-03-21T09:32:54.088Z,26.13
2019-03-21T09:35:22.952Z,24.00
2019-03-21T09:37:51.855Z,25.20
2019-03-21T09:40:20.831Z,22.93
2019-03-21T09:42:49.706Z,24.37
2019-03-21T09:45:18.606Z,23.77
2019-03-21T09:47:47.732Z,24.60
2019-03-21T09:50:26.167Z,23.50
2019-03-21T09:52:55.451Z,24.37
2019-03-21T09:55:24.352Z,23.90
2019-03-21T09:57:53.366Z,23.77
2019-03-21T10:00:33.534Z,23.97
2019-03-21T10:03:02.823Z,25.13
2019-03-21T10:05:32.588Z,25.63
2019-03-21T10:08:01.683Z,26.43
2019-03-21T10:10:31.439Z,24.47
2019-03-21T10:13:01.443Z,26.30
2019-03-21T10:15:30.252Z,25.30
2019-03-21T10:17:59.221Z,27.67
2019-03-21T10:20:28.187Z,25.80
2019-03-21T10:22:57.074Z,25.80
2019-03-21T10:25:26.961Z,26.67
2019-03-21T10:27:56.091Z,26.70
2019-03-21T10:30:41.563Z,27.10
2019-03-21T10:33:13.513Z,25.90
2019-03-21T10:35:42.555Z,26.53
2019-03-21T10:38:11.809Z,26.47
2019-03-21T10:40:40.992Z,25.93
2019-03-21T10:43:10.633Z,26.20
2019-03-21T10:45:40.000Z,26.53
2019-03-21T10:48:08.997Z,27.73
2019-03-21T10:50:39.494Z,27.47
2019-03-21T10:53:09.221Z,26.47
2019-03-21T10:55:38.531Z,28.20
2019-03-21T10:58:08.803Z,26.93
2019-03-21T11:00:38.683Z,26.73
2019-03-21T11:03:08.556Z,27.50
2019-03-21T11:05:37.822Z,26.20
2019-03-21T11:08:07.140Z,26.73
2019-03-21T11:10:36.000Z,26.53
2019-03-21T11:13:06.128Z,26.90
2019-03-21T11:15:35.089Z,27.23
2019-03-21T11:18:04.418Z,26.97
2019-03-21T11:20:35.622Z,26.03
2019-03-21T11:23:06.133Z,26.50
2019-03-21T11:25:35.399Z,27.80
2019-03-21T11:28:06.168Z,28.50
2019-03-21T11:30:37.305Z,28.10
2019-03-21T11:33:06.428Z,27.27
2019-03-21T11:35:36.812Z,26.70
2019-03-21T11:38:06.041Z,27.00
2019-03-21T11:40:34.986Z,28.17
2019-03-21T11:43:05.107Z,27.10
2019-03-21T11:45:34.035Z,27.20
2019-03-21T11:48:03.384Z,27.57
2019-03-21T11:50:32.345Z,26.27
2019-03-21T11:53:01.251Z,26.37
2019-03-21T11:55:31.515Z,25.47
2019-03-21T11:58:00.347Z,27.37
2019-03-21T12:00:29.303Z,27.17
2019-03-21T12:02:58.194Z,28.33
2019-03-21T12:05:27.140Z,27.37
2019-03-21T12:07:57.049Z,26.60
2019-03-21T12:10:25.942Z,25.80
2019-03-21T12:12:55.092Z,25.27
2019-03-21T12:15:23.975Z,24.23
2019-03-21T12:17:52.958Z,25.47
2019-03-21T12:20:40.048Z,24.40
2019-03-21T12:23:09.017Z,24.70
2019-03-21T12:25:37.938Z,23.80
2019-03-21T12:28:06.903Z,23.70
2019-03-21T12:30:40.567Z,22.77
2019-03-21T12:33:09.932Z,21.43
2019-03-21T12:35:38.981Z,21.50
2019-03-21T12:38:08.106Z,21.07
2019-03-21T12:40:37.150Z,20.63
2019-03-21T12:43:09.314Z,20.60
2019-03-21T12:45:38.331Z,20.00
2019-03-21T12:48:07.191Z,20.53
2019-03-21T12:50:36.021Z,19.47
2019-03-21T12:53:05.037Z,18.43
2019-03-21T12:55:33.989Z,18.37
2019-03-21T12:58:02.941Z,18.77
2019-03-21T13:00:42.672Z,19.40
2019-03-21T13:03:12.148Z,18.17
2019-03-21T13:05:41.394Z,19.03
2019-03-21T13:08:10.747Z,18.50
2019-03-21T13:10:40.908Z,19.57
2019-03-21T13:13:09.835Z,19.73
2019-03-21T13:15:38.863Z,19.57
2019-03-21T13:18:08.410Z,19.00
2019-03-21T13:20:37.565Z,20.00
2019-03-21T13:23:07.081Z,19.77
2019-03-21T13:25:36.223Z,19.67
2019-03-21T13:28:05.610Z,19.40
2019-03-21T13:30:35.116Z,20.17
2019-03-21T13:33:04.871Z,20.20
2019-03-21T13:35:33.872Z,18.87
2019-03-21T13:38:02.997Z,19.80
2019-03-21T13:40:32.118Z,19.97
2019-03-21T13:43:03.971Z,19.63
2019-03-21T13:45:33.072Z,19.83
2019-03-21T13:48:03.401Z,19.50
2019-03-21T13:50:32.390Z,20.23
2019-03-21T13:53:05.231Z,19.80
2019-03-21T13:55:34.386Z,20.53
2019-03-21T13:58:03.549Z,20.73
2019-03-21T14:00:32.515Z,20.00
2019-03-21T14:03:01.351Z,20.63
2019-03-21T14:05:30.231Z,21.27
2019-03-21T14:07:59.108Z,22.23
2019-03-21T14:10:28.950Z,22.93
2019-03-21T14:12:57.811Z,21.23
2019-03-21T14:15:26.935Z,21.37
2019-03-21T14:17:56.209Z,20.63
2019-03-21T14:20:25.556Z,22.43
2019-03-21T14:22:55.048Z,21.70
2019-03-21T14:25:24.134Z,21.17
2019-03-21T14:27:53.236Z,20.90
2019-03-21T14:30:22.228Z,21.30
2019-03-21T14:32:51.371Z,21.30
2019-03-21T14:35:20.677Z,20.57
2019-03-21T14:37:49.703Z,21.60
2019-03-21T14:40:20.192Z,20.53
2019-03-21T14:42:49.295Z,21.10
2019-03-21T14:45:18.687Z,20.53
2019-03-21T14:47:47.874Z,23.10
2019-03-21T14:50:18.477Z,21.73
2019-03-21T14:52:48.346Z,20.30
2019-03-21T14:55:17.319Z,21.00
2019-03-21T14:57:46.538Z,21.40
2019-03-21T15:00:17.476Z,21.13
2019-03-21T15:02:46.782Z,19.47
2019-03-21T15:05:16.169Z,21.53
2019-03-21T15:07:46.095Z,21.57
2019-03-21T15:10:15.312Z,22.23
2019-03-21T15:12:44.200Z,21.80
2019-03-21T15:15:13.842Z,21.83
2019-03-21T15:17:45.345Z,21.33
2019-03-21T15:20:15.215Z,21.03
2019-03-21T15:22:44.548Z,21.17
2019-03-21T15:25:13.566Z,21.00
2019-03-21T15:27:43.601Z,20.93
2019-03-21T15:30:16.218Z,21.27
2019-03-21T15:32:45.567Z,20.00
2019-03-21T15:35:15.014Z,21.10
2019-03-21T15:37:43.980Z,21.30
2019-03-21T15:40:13.124Z,19.80
2019-03-21T15:42:42.069Z,20.17
2019-03-21T15:45:22.211Z,20.90
2019-03-21T15:47:47.338Z,19.87
2019-03-21T15:50:32.363Z,19.47
2019-03-21T15:53:01.798Z,20.33
2019-03-21T15:55:30.937Z,20.67
2019-03-21T15:58:00.535Z,22.30
2019-03-21T16:00:38.504Z,19.83
2019-03-21T16:03:08.495Z,19.70
2019-03-21T16:05:38.528Z,20.30
2019-03-21T16:08:09.926Z,19.73
2019-03-21T16:10:38.847Z,20.20
2019-03-21T16:13:07.814Z,20.57
2019-03-21T16:15:36.757Z,20.70
2019-03-21T16:18:05.790Z,21.20
2019-03-21T16:20:34.943Z,21.33
2019-03-21T16:23:04.151Z,20.47
2019-03-21T16:25:33.090Z,21.17
2019-03-21T16:28:02.028Z,20.07
2019-03-21T16:30:31.011Z,21.47
2019-03-21T16:32:59.912Z,22.80
2019-03-21T16:35:28.804Z,23.20
2019-03-21T16:37:58.289Z,23.67
2019-03-21T16:40:27.261Z,24.20
2019-03-21T16:42:56.459Z,25.03
2019-03-21T16:45:25.341Z,23.43
2019-03-21T16:47:54.341Z,24.63
2019-03-21T16:50:23.201Z,24.17
2019-03-21T16:52:52.116Z,24.30
2019-03-21T16:55:21.396Z,24.23
2019-03-21T16:57:50.313Z,24.27
2019-03-21T17:00:19.378Z,23.73
2019-03-21T17:02:48.433Z,23.03
2019-03-21T17:05:17.430Z,22.93
2019-03-21T17:07:46.438Z,23.30
2019-03-21T17:10:17.215Z,22.13
2019-03-21T17:12:46.059Z,22.23
2019-03-21T17:15:15.024Z,21.77
2019-03-21T17:17:44.071Z,22.27
2019-03-21T17:20:13.769Z,22.40
2019-03-21T17:22:42.587Z,22.17
2019-03-21T17:25:11.830Z,21.40
2019-03-21T17:27:40.686Z,22.60
2019-03-21T17:30:12.501Z,22.47
2019-03-21T17:32:41.521Z,22.73
2019-03-21T17:35:11.172Z,22.43
2019-03-21T17:37:41.282Z,22.63
2019-03-21T17:40:11.914Z,22.90
2019-03-21T17:42:41.046Z,23.63
2019-03-21T17:45:12.048Z,22.90
2019-03-21T17:47:40.883Z,22.27
2019-03-21T17:50:11.082Z,23.20
2019-03-21T17:52:40.073Z,22.60
2019-03-21T17:55:09.385Z,23.83
2019-03-21T17:57:38.384Z,21.80
2019-03-21T18:00:14.762Z,22.67
2019-03-21T18:02:43.803Z,23.47
2019-03-21T18:05:12.823Z,23.10
2019-03-21T18:07:42.376Z,24.33
2019-03-21T18:10:27.651Z,23.37
2019-03-21T18:12:57.604Z,23.67
2019-03-21T18:15:26.934Z,23.13
2019-03-21T18:17:55.777Z,23.40
2019-03-21T18:20:24.726Z,25.30
2019-03-21T18:22:53.731Z,24.23
2019-03-21T18:25:22.605Z,22.67
2019-03-21T18:27:51.503Z,24.70
2019-03-21T18:30:20.546Z,24.30
2019-03-21T18:32:49.557Z,23.50
2019-03-21T18:35:18.588Z,24.07
2019-03-21T18:37:47.724Z,25.40
2019-03-21T18:40:16.981Z,24.03
2019-03-21T18:42:46.254Z,25.60
2019-03-21T18:45:15.868Z,26.33
2019-03-21T18:47:44.729Z,25.33
2019-03-21T18:50:14.742Z,25.93
2019-03-21T18:52:43.681Z,26.70
2019-03-21T18:55:13.193Z,26.50
2019-03-21T18:57:42.029Z,26.40
2019-03-21T19:00:14.552Z,26.63
2019-03-21T19:02:43.482Z,26.83
2019-03-21T19:05:12.814Z,26.60
2019-03-21T19:07:41.666Z,27.30
2019-03-21T19:10:11.097Z,28.00
2019-03-21T19:12:41.076Z,26.57
2019-03-21T19:15:10.672Z,26.37
2019-03-21T19:17:41.404Z,25.87
2019-03-21T19:20:12.006Z,27.63
2019-03-21T19:22:41.303Z,27.00
2019-03-21T19:25:18.615Z,27.10
2019-03-21T19:27:42.108Z,27.90
2019-03-21T19:30:12.430Z,29.50
2019-03-21T19:32:41.782Z,29.13
2019-03-21T19:35:12.214Z,30.27
2019-03-21T19:37:41.200Z,31.20
2019-03-21T19:40:10.917Z,30.63
2019-03-21T19:42:39.801Z,31.43
2019-03-21T19:45:09.963Z,32.23
2019-03-21T19:47:40.211Z,32.57
2019-03-21T19:50:10.032Z,32.70
2019-03-21T19:52:39.099Z,31.37
2019-03-21T19:55:09.633Z,33.10
2019-03-21T19:57:38.637Z,32.37
2019-03-21T20:00:11.452Z,33.77
2019-03-21T20:02:40.501Z,35.20
2019-03-21T20:05:13.340Z,34.97
2019-03-21T20:07:42.293Z,34.00
2019-03-21T20:10:13.179Z,33.97
2019-03-21T20:12:43.642Z,37.40
2019-03-21T20:15:13.428Z,35.20
2019-03-21T20:17:42.565Z,36.27
2019-03-21T20:20:12.557Z,35.67
2019-03-21T20:22:41.694Z,35.93
2019-03-21T20:25:11.108Z,35.83
2019-03-21T20:27:40.215Z,35.73
2019-03-21T20:30:12.498Z,35.17
2019-03-21T20:32:41.482Z,38.20
2019-03-21T20:35:10.971Z,37.77
2019-03-21T20:37:41.168Z,37.33
2019-03-21T20:40:12.206Z,37.27
2019-03-21T20:42:41.100Z,36.87
2019-03-21T20:45:15.326Z,37.20
2019-03-21T20:47:44.399Z,38.43
2019-03-21T20:50:13.501Z,36.83
2019-03-21T20:52:42.572Z,38.30
2019-03-21T20:55:11.909Z,37.93
2019-03-21T20:57:40.747Z,37.13
2019-03-21T21:00:15.009Z,38.80
2019-03-21T21:02:44.045Z,38.63
2019-03-21T21:05:15.355Z,39.33
2019-03-21T21:07:44.526Z,40.10
2019-03-21T21:10:13.777Z,40.50
2019-03-21T21:12:44.117Z,39.97
2019-03-21T21:15:22.037Z,40.90
2019-03-21T21:17:51.384Z,40.00
2019-03-21T21:20:20.391Z,40.03
2019-03-21T21:22:49.448Z,40.93
2019-03-21T21:25:18.372Z,42.03
2019-03-21T21:27:49.661Z,39.63
2019-03-21T21:30:20.020Z,40.73
2019-03-21T21:32:49.032Z,40.90
2019-03-21T21:35:18.036Z,39.80
2019-03-21T21:37:46.989Z,41.50
2019-03-21T21:40:16.907Z,41.37
2019-03-21T21:42:45.825Z,41.63
2019-03-21T21:45:29.343Z,41.50
2019-03-21T21:47:56.731Z,39.77
2019-03-21T21:50:25.766Z,43.07
2019-03-21T21:52:54.708Z,41.10
2019-03-21T21:55:23.750Z,41.27
2019-03-21T21:57:52.796Z,45.40
2019-03-21T22:00:22.156Z,41.10
2019-03-21T22:02:51.252Z,40.77
2019-03-21T22:05:21.101Z,43.30
2019-03-21T22:07:50.075Z,40.33
2019-03-21T22:10:18.978Z,41.73
2019-03-21T22:12:48.510Z,41.20
2019-03-21T22:15:17.474Z,42.67
2019-03-21T22:17:49.362Z,41.87
2019-03-21T22:20:18.385Z,42.57
2019-03-21T22:22:47.355Z,42.83
2019-03-21T22:25:16.319Z,43.57
2019-03-21T22:27:45.297Z,44.73
2019-03-21T22:30:15.319Z,42.57
2019-03-21T22:32:44.262Z,43.97
2019-03-21T22:35:13.315Z,44.23
2019-03-21T22:37:42.246Z,45.43
2019-03-21T22:40:12.567Z,45.40
2019-03-21T22:42:41.573Z,46.70
2019-03-21T22:45:12.027Z,44.77
2019-03-21T22:47:40.964Z,43.87
2019-03-21T22:50:14.616Z,46.43
2019-03-21T22:52:43.137Z,45.80
2019-03-21T22:55:13.299Z,46.67
2019-03-21T22:57:42.374Z,43.70
2019-03-21T23:00:15.975Z,44.97
2019-03-21T23:02:47.036Z,42.83
2019-03-21T23:05:16.372Z,43.27
2019-03-21T23:07:45.244Z,42.10
2019-03-21T23:10:14.603Z,42.80
2019-03-21T23:12:43.818Z,44.03
2019-03-21T23:15:13.480Z,42.87
2019-03-21T23:17:42.815Z,44.00
2019-03-21T23:20:13.182Z,43.30
2019-03-21T23:22:42.540Z,43.53
2019-03-21T23:25:12.928Z,43.80
2019-03-21T23:27:44.616Z,42.77
2019-03-21T23:30:14.053Z,43.10
2019-03-21T23:32:43.986Z,44.27
2019-03-21T23:35:13.286Z,43.37
2019-03-21T23:37:42.451Z,45.93
2019-03-21T23:40:11.630Z,44.03
2019-03-21T23:42:40.812Z,43.67
2019-03-21T23:45:10.047Z,42.63
2019-03-21T23:47:39.124Z,42.33
2019-03-21T23:50:08.494Z,41.33
2019-03-21T23:52:37.498Z,38.50
2019-03-21T23:55:07.508Z,37.57
2019-03-21T23:57:44.529Z,35.93
